Time;durP1;ratioP1;P1;durP2;ratioP2;P2;SDS_P1;SDS_P2;PMS_P1;PMS_P2;Temp;Humidity;BMP_temperature;BMP_pressure;BME280_temperature;BME280_humidity;BME280_pressure;Samples;Min_cycle;Max_cycle;Signal;HPM_P1;HPM_P2
2023/07/18 00:01:24;;;;;;;5.95;2.63;;;;;;;14.64;94.91;101713.88;5038989;28;20655;-60
2023/07/18 00:03:49;;;;;;;5.82;2.90;;;;;;;14.62;94.84;101718.22;5038952;28;20036;-60
2023/07/18 00:06:18;;;;;;;6.13;3.03;;;;;;;14.59;94.76;101708.72;5042421;28;20043;-61
2023/07/18 00:08:44;;;;;;;5.25;2.80;;;;;;;14.58;94.87;101706.13;5035734;28;20037;-61
2023/07/18 00:11:10;;;;;;;7.25;2.78;;;;;;;14.55;94.89;101704.41;5036385;28;20474;-61
2023/07/18 00:13:35;;;;;;;9.25;3.10;;;;;;;14.53;94.85;101713.13;5043077;28;20135;-63
2023/07/18 00:16:01;;;;;;;6.80;2.92;;;;;;;14.49;95.11;101714.00;5033890;28;20041;-63
2023/07/18 00:18:26;;;;;;;4.63;2.60;;;;;;;14.45;94.99;101708.00;5045460;28;20040;-62
2023/07/18 00:20:51;;;;;;;3.40;2.58;;;;;;;14.41;94.91;101701.09;5043527;28;20074;-62
2023/07/18 00:23:17;;;;;;;4.85;3.30;;;;;;;14.42;94.78;101708.03;5038766;28;20638;-62
2023/07/18 00:25:42;;;;;;;5.63;3.30;;;;;;;14.40;94.83;101703.69;5041334;28;20442;-62
2023/07/18 00:28:09;;;;;;;4.72;3.35;;;;;;;14.37;94.66;101701.94;5037516;28;20061;-61
2023/07/18 00:30:34;;;;;;;9.75;3.85;;;;;;;14.35;94.60;101695.91;5034058;28;20041;-63
2023/07/18 00:33:00;;;;;;;5.00;3.33;;;;;;;14.28;94.34;101686.41;5043543;28;20252;-62
2023/07/18 00:35:27;;;;;;;9.43;4.07;;;;;;;14.30;94.47;101689.91;5036866;28;20032;-60
2023/07/18 00:37:53;;;;;;;5.40;3.25;;;;;;;14.29;94.57;101698.56;5033591;28;20061;-60
2023/07/18 00:40:18;;;;;;;6.80;3.00;;;;;;;14.26;94.68;101695.13;5038274;28;20202;-60
2023/07/18 00:42:47;;;;;;;5.60;2.90;;;;;;;14.22;94.79;101702.06;5042391;28;20418;-60
2023/07/18 00:45:13;;;;;;;5.75;3.00;;;;;;;14.17;94.92;101700.41;5028853;28;20047;-60
2023/07/18 00:47:41;;;;;;;10.57;3.70;;;;;;;14.13;95.09;101698.72;5036138;28;20037;-61
2023/07/18 00:50:17;;;;;;;9.32;3.65;;;;;;;14.07;94.94;101700.47;5037591;28;20033;-61
2023/07/18 00:52:51;;;;;;;6.88;3.65;;;;;;;14.03;94.72;101695.31;5036422;28;20049;-62
2023/07/18 00:55:17;;;;;;;6.15;3.55;;;;;;;14.00;94.40;101685.81;5042525;28;20124;-61
2023/07/18 00:57:44;;;;;;;7.30;3.40;;;;;;;13.98;94.73;101681.47;5034952;28;20490;-61
2023/07/18 01:00:11;;;;;;;7.72;3.42;;;;;;;13.95;94.53;101684.13;5035080;28;20129;-61
2023/07/18 01:02:38;;;;;;;8.65;3.22;;;;;;;13.93;94.87;101683.25;5031450;28;20379;-62
2023/07/18 01:05:04;;;;;;;8.23;3.60;;;;;;;13.92;94.83;101682.38;5041041;28;20036;-62
2023/07/18 01:07:30;;;;;;;11.30;3.38;;;;;;;13.89;94.81;101679.81;5030704;28;20028;-63
2023/07/18 01:10:24;;;;;;;7.18;3.58;;;;;;;13.86;95.36;101676.41;5031559;28;20045;-60
2023/07/18 01:12:57;;;;;;;5.20;3.10;;;;;;;13.83;95.17;101677.25;5029132;28;20067;-60
2023/07/18 01:15:24;;;;;;;7.55;3.28;;;;;;;13.80;95.33;101682.47;5031842;28;20083;-60
2023/07/18 01:17:49;;;;;;;7.50;3.30;;;;;;;13.79;95.38;101679.91;5031582;28;20037;-61
2023/07/18 01:20:21;;;;;;;5.78;3.30;;;;;;;13.78;95.50;101678.16;5031673;28;20028;-60
2023/07/18 01:22:52;;;;;;;9.20;3.33;;;;;;;13.74;95.58;101685.09;5039906;28;20494;-60
2023/07/18 01:25:19;;;;;;;4.78;2.88;;;;;;;13.72;95.78;101684.25;5044885;28;20111;-60
2023/07/18 01:27:45;;;;;;;7.90;3.38;;;;;;;13.71;96.09;101679.09;5042270;28;20070;-60
2023/07/18 01:30:11;;;;;;;5.45;3.20;;;;;;;13.70;95.80;101674.75;5037072;28;20056;-60
2023/07/18 01:32:36;;;;;;;10.52;3.53;;;;;;;13.69;95.93;101673.03;5037170;28;20059;-60
2023/07/18 01:35:08;;;;;;;7.10;3.58;;;;;;;13.68;95.55;101664.41;5037954;28;20541;-60
2023/07/18 01:37:35;;;;;;;7.35;3.33;;;;;;;13.66;95.24;101668.72;5035733;28;20087;-60
2023/07/18 01:40:00;;;;;;;8.73;3.78;;;;;;;13.63;95.63;101663.53;5035630;28;20040;-62
2023/07/18 01:42:26;;;;;;;10.40;4.05;;;;;;;13.62;94.82;101659.25;5037177;28;20040;-63
2023/07/18 01:44:52;;;;;;;10.38;4.00;;;;;;;13.60;94.81;101653.16;5038712;28;20044;-60
2023/07/18 01:47:17;;;;;;;7.10;3.75;;;;;;;13.60;94.55;101650.56;5038961;28;20025;-60
2023/07/18 01:49:42;;;;;;;7.28;3.92;;;;;;;13.57;94.35;101654.06;5038184;28;20044;-60
2023/07/18 01:52:08;;;;;;;8.55;4.00;;;;;;;13.54;94.28;101645.41;5037897;28;20033;-60
2023/07/18 01:54:33;;;;;;;8.88;4.10;;;;;;;13.51;94.53;101650.63;5038598;28;20044;-60
2023/07/18 01:56:58;;;;;;;5.43;3.35;;;;;;;13.47;94.67;101652.38;5040371;28;20032;-60
2023/07/18 01:59:24;;;;;;;6.57;3.63;;;;;;;13.43;95.02;101653.28;5034124;28;20043;-60
2023/07/18 02:01:51;;;;;;;6.57;3.78;;;;;;;13.37;95.08;101648.13;5042234;28;20028;-60
2023/07/18 02:04:16;;;;;;;8.93;3.95;;;;;;;13.35;94.96;101651.59;5045713;28;20067;-60
2023/07/18 02:06:41;;;;;;;8.40;4.03;;;;;;;13.30;95.49;101648.16;5049504;28;20041;-60
2023/07/18 02:09:07;;;;;;;6.93;3.78;;;;;;;13.28;95.70;101648.19;5042109;28;20025;-60
2023/07/18 02:11:32;;;;;;;8.43;4.05;;;;;;;13.25;95.34;101649.91;5042071;28;20040;-63
2023/07/18 02:13:58;;;;;;;8.75;3.78;;;;;;;13.20;95.56;101646.50;5042183;28;20037;-62
2023/07/18 02:16:23;;;;;;;5.35;3.10;;;;;;;13.19;95.59;101647.34;5042011;28;20037;-62
2023/07/18 02:18:48;;;;;;;5.72;3.50;;;;;;;13.16;95.73;101644.78;5035738;28;20049;-63
2023/07/18 02:21:14;;;;;;;8.38;3.53;;;;;;;13.12;95.87;101648.28;5043942;28;20037;-62
2023/07/18 02:23:39;;;;;;;9.13;4.45;;;;;;;13.10;95.62;101642.22;5038865;28;20040;-62
2023/07/18 02:26:04;;;;;;;7.60;3.33;;;;;;;13.07;95.71;101637.91;5043010;28;20028;-63
2023/07/18 02:28:30;;;;;;;9.80;3.33;;;;;;;13.06;95.56;101641.34;5037695;28;20059;-62
2023/07/18 02:30:55;;;;;;;9.65;3.72;;;;;;;13.04;95.56;101629.25;5032004;28;20044;-62
2023/07/18 02:33:21;;;;;;;7.43;3.92;;;;;;;13.07;95.40;101624.91;5041162;28;20029;-62
2023/07/18 02:35:49;;;;;;;6.38;3.90;;;;;;;13.05;95.40;101631.00;5039739;28;20059;-63
2023/07/18 02:38:15;;;;;;;12.18;4.35;;;;;;;13.00;95.75;101629.28;5042472;28;20110;-62
2023/07/18 02:40:44;;;;;;;7.68;4.20;;;;;;;12.99;95.90;101637.03;5042746;28;20538;-63
2023/07/18 02:43:09;;;;;;;3.95;3.03;;;;;;;12.94;95.96;101639.63;5047424;28;20039;-61
2023/07/18 02:45:35;;;;;;;5.70;3.10;;;;;;;12.91;96.12;101644.84;5037853;28;20044;-60
2023/07/18 02:48:00;;;;;;;9.75;3.58;;;;;;;12.89;96.30;101645.72;5041135;28;20067;-60
2023/07/18 02:50:26;;;;;;;7.40;3.47;;;;;;;12.84;96.45;101639.69;5048453;28;20091;-61
2023/07/18 02:52:51;;;;;;;10.02;3.70;;;;;;;12.82;96.82;101644.88;5042192;28;20082;-60
2023/07/18 02:55:17;;;;;;;7.05;3.45;;;;;;;12.84;96.67;101644.88;5041301;28;20036;-60
2023/07/18 02:57:42;;;;;;;6.60;3.35;;;;;;;12.82;96.84;101644.03;5035092;28;20144;-60
2023/07/18 03:00:19;;;;;;;6.50;3.63;;;;;;;12.80;96.92;101643.16;5039617;28;20052;-60
2023/07/18 03:02:45;;;;;;;7.50;3.22;;;;;;;12.77;96.96;101637.97;5036124;28;20505;-61
2023/07/18 03:05:11;;;;;;;6.82;3.40;;;;;;;12.74;96.74;101636.25;5035466;28;20032;-61
2023/07/18 03:07:36;;;;;;;6.47;3.30;;;;;;;12.74;96.76;101641.47;5041879;28;20027;-60
2023/07/18 03:10:03;;;;;;;5.47;3.25;;;;;;;12.70;96.93;101641.47;5034914;28;20048;-60
2023/07/18 03:12:29;;;;;;;5.30;2.67;;;;;;;12.68;97.13;101640.59;5033992;28;20032;-60
2023/07/18 03:14:54;;;;;;;6.50;3.28;;;;;;;12.66;97.27;101638.03;5038381;28;20033;-60
2023/07/18 03:17:20;;;;;;;7.03;3.50;;;;;;;12.66;97.22;101639.75;5034555;28;20033;-62
2023/07/18 03:19:46;;;;;;;6.82;3.33;;;;;;;12.67;97.45;101633.72;5034303;28;20496;-62
2023/07/18 03:22:13;;;;;;;6.82;4.00;;;;;;;12.67;97.32;101638.91;5031215;28;20063;-62
2023/07/18 03:24:38;;;;;;;6.72;3.95;;;;;;;12.65;97.69;101631.09;5035121;28;20029;-62
2023/07/18 03:27:04;;;;;;;9.18;4.35;;;;;;;12.69;97.68;101631.97;5045815;28;20054;-62
2023/07/18 03:29:29;;;;;;;7.55;4.95;;;;;;;12.72;97.53;101635.41;5035697;28;20047;-62
2023/07/18 03:31:55;;;;;;;8.23;4.22;;;;;;;12.72;97.31;101630.22;5045010;28;20115;-62
2023/07/18 03:34:20;;;;;;;8.95;3.75;;;;;;;12.72;97.27;101629.34;5042677;28;20064;-63
2023/07/18 03:36:46;;;;;;;4.25;3.38;;;;;;;12.71;97.64;101625.91;5034307;28;20044;-62
2023/07/18 03:39:13;;;;;;;6.55;4.20;;;;;;;12.70;97.37;101639.72;5032129;28;20076;-62
2023/07/18 03:41:39;;;;;;;13.68;4.20;;;;;;;12.70;97.51;101633.69;5033086;28;20045;-62
2023/07/18 03:44:04;;;;;;;11.57;4.00;;;;;;;12.68;97.26;101636.28;5035148;28;20028;-62
2023/07/18 03:46:30;;;;;;;6.97;3.70;;;;;;;12.67;97.32;101642.31;5030174;28;20562;-62
2023/07/18 03:48:55;;;;;;;7.00;3.85;;;;;;;12.68;97.35;101640.59;5030885;28;20037;-62
2023/07/18 03:51:21;;;;;;;9.07;3.78;;;;;;;12.68;97.14;101636.28;5041662;28;20498;-62
2023/07/18 03:53:46;;;;;;;10.98;4.10;;;;;;;12.69;97.37;101638.03;5041464;28;20125;-60
2023/07/18 03:56:11;;;;;;;6.03;3.63;;;;;;;12.71;97.13;101638.00;5032550;28;20040;-60
2023/07/18 03:58:37;;;;;;;8.95;3.72;;;;;;;12.70;97.11;101638.88;5033641;28;20030;-60
2023/07/18 04:01:07;;;;;;;7.72;4.45;;;;;;;12.69;97.06;101637.16;5035013;28;20037;-60
2023/07/18 04:03:33;;;;;;;5.72;3.67;;;;;;;12.70;97.20;101639.72;5033200;28;20032;-60
2023/07/18 04:05:58;;;;;;;8.77;4.25;;;;;;;12.71;96.83;101630.22;5041920;28;20425;-60
2023/07/18 04:08:24;;;;;;;6.97;3.80;;;;;;;12.74;97.18;101628.47;5040519;28;20064;-61
2023/07/18 04:10:49;;;;;;;5.07;3.65;;;;;;;12.80;97.22;101630.19;5046878;28;20103;-62
2023/07/18 04:13:15;;;;;;;7.55;4.00;;;;;;;12.86;96.91;101624.97;5029336;28;20037;-62
2023/07/18 04:15:40;;;;;;;7.60;4.03;;;;;;;12.90;96.10;101626.69;5036120;28;20044;-62
2023/07/18 04:18:06;;;;;;;11.90;4.00;;;;;;;12.97;95.65;101620.59;5037877;28;20788;-62
2023/07/18 04:20:31;;;;;;;8.73;4.25;;;;;;;13.03;95.58;101625.78;5031811;28;20044;-62
2023/07/18 04:22:57;;;;;;;7.60;4.30;;;;;;;13.09;95.31;101620.56;5036521;28;20079;-62
2023/07/18 04:25:23;;;;;;;7.80;3.92;;;;;;;13.15;95.17;101620.53;5038489;28;20040;-62
2023/07/18 04:27:48;;;;;;;7.85;3.95;;;;;;;13.21;94.91;101627.44;5036788;28;20033;-62
2023/07/18 04:30:14;;;;;;;7.50;3.97;;;;;;;13.27;95.11;101628.25;5030463;28;20063;-62
2023/07/18 04:32:43;;;;;;;8.95;4.15;;;;;;;13.36;95.01;101619.56;5031955;28;20807;-62
2023/07/18 04:35:08;;;;;;;8.75;4.15;;;;;;;13.43;94.46;101623.84;5042652;28;20039;-61
2023/07/18 04:37:34;;;;;;;7.57;4.40;;;;;;;13.49;94.00;101627.28;5045238;28;20025;-60
2023/07/18 04:39:59;;;;;;;12.65;4.88;;;;;;;13.55;93.20;101621.19;5043104;28;20106;-62
2023/07/18 04:42:24;;;;;;;8.18;4.40;;;;;;;13.62;93.08;101617.69;5033939;28;20040;-61
2023/07/18 04:44:50;;;;;;;15.07;4.93;;;;;;;13.71;92.82;101614.13;5037401;28;20037;-60
2023/07/18 04:47:15;;;;;;;9.85;5.00;;;;;;;13.76;92.70;101620.16;5033248;28;20021;-60
2023/07/18 04:49:40;;;;;;;13.10;5.30;;;;;;;13.85;92.33;101617.47;5037410;28;20053;-60
2023/07/18 04:52:07;;;;;;;10.07;4.93;;;;;;;13.93;91.88;101607.88;5027280;28;20123;-60
2023/07/18 04:54:32;;;;;;;12.30;4.25;;;;;;;14.02;91.97;101610.41;5037505;28;20585;-60
2023/07/18 04:56:58;;;;;;;7.65;4.60;;;;;;;14.08;91.12;101610.34;5044364;28;20037;-60
2023/07/18 04:59:23;;;;;;;7.95;4.80;;;;;;;14.16;91.59;101607.69;5034079;28;20037;-62
2023/07/18 05:01:55;;;;;;;9.93;4.80;;;;;;;14.25;91.33;101599.75;5035639;28;20040;-63
2023/07/18 05:04:20;;;;;;;8.85;5.20;;;;;;;14.37;91.07;101604.84;5037353;28;20116;-63
2023/07/18 05:06:46;;;;;;;7.32;4.97;;;;;;;14.47;90.45;101596.13;5036957;28;20041;-62
2023/07/18 05:09:12;;;;;;;7.43;5.10;;;;;;;14.54;89.76;101598.63;5040076;28;20037;-63
2023/07/18 05:11:37;;;;;;;9.77;4.72;;;;;;;14.59;nan;101596.84;5039136;28;20049;-63
2023/07/18 05:14:02;;;;;;;8.13;4.80;;;;;;;14.70;89.72;101601.03;5036264;28;20069;-61
2023/07/18 05:16:28;;;;;;;7.70;4.10;;;;;;;14.78;89.30;101591.41;5041970;28;20040;-61
2023/07/18 05:18:53;;;;;;;8.45;4.55;;;;;;;14.88;89.61;101586.06;5041762;28;20095;-63
2023/07/18 05:21:19;;;;;;;7.50;4.43;;;;;;;15.01;89.28;101591.97;5037412;28;20071;-60
2023/07/18 05:23:44;;;;;;;9.90;4.95;;;;;;;15.10;89.51;101587.53;5040874;28;20036;-62
2023/07/18 05:26:10;;;;;;;11.63;4.82;;;;;;;15.20;89.05;101591.69;5038839;28;20056;-60
2023/07/18 05:28:35;;;;;;;10.63;4.60;;;;;;;15.32;88.77;101588.06;5031490;28;20167;-61
2023/07/18 05:31:08;;;;;;;5.15;3.50;;;;;;;15.43;88.64;101586.16;5034070;28;20571;-60
2023/07/18 05:33:33;;;;;;;9.88;4.30;;;;;;;15.57;87.94;101593.75;5037634;28;20036;-60
2023/07/18 05:35:59;;;;;;;10.30;4.82;;;;;;;15.71;87.10;101591.81;5037659;28;20045;-60
2023/07/18 05:38:24;;;;;;;9.23;4.13;;;;;;;15.81;86.64;101589.94;5017440;28;20036;-63
2023/07/18 05:40:50;;;;;;;11.73;4.18;;;;;;;15.93;84.53;101593.19;5040035;28;20037;-63
2023/07/18 05:43:15;;;;;;;8.55;3.90;;;;;;;16.07;84.49;101595.56;5036452;28;20135;-62
2023/07/18 05:45:40;;;;;;;7.88;4.43;;;;;;;16.19;83.63;101593.59;5036232;28;20391;-62
2023/07/18 05:48:06;;;;;;;8.35;4.63;;;;;;;16.26;82.63;101594.34;5035059;28;20041;-62
2023/07/18 05:50:31;;;;;;;9.55;4.40;;;;;;;16.31;82.12;101592.50;5033318;28;20099;-63
2023/07/18 05:52:56;;;;;;;7.70;4.30;;;;;;;16.42;81.52;101584.47;5027670;28;20041;-62
2023/07/18 05:55:22;;;;;;;5.72;3.30;;;;;;;16.49;81.80;101589.53;5037522;28;20720;-62
2023/07/18 05:57:47;;;;;;;6.15;3.75;;;;;;;16.55;81.19;101579.00;5030167;28;20506;-62
2023/07/18 06:00:13;;;;;;;6.78;4.45;;;;;;;16.68;81.21;101590.88;5033200;28;20124;-63
2023/07/18 06:02:39;;;;;;;13.05;4.15;;;;;;;16.74;80.24;101582.94;5041204;28;20041;-62
2023/07/18 06:05:07;;;;;;;12.73;3.70;;;;;;;16.83;79.01;101571.47;5035811;28;20021;-62
2023/07/18 06:07:32;;;;;;;9.88;3.92;;;;;;;16.93;79.06;101579.97;5033644;28;20056;-63
2023/07/18 06:09:57;;;;;;;9.15;3.88;;;;;;;17.04;78.34;101572.78;5033769;28;20141;-61
2023/07/18 06:12:23;;;;;;;8.93;3.90;;;;;;;17.26;77.58;101576.63;5034890;28;20041;-60
2023/07/18 06:14:49;;;;;;;8.10;4.20;;;;;;;17.54;76.00;101553.31;5031510;28;20116;-61
2023/07/18 06:17:14;;;;;;;8.50;3.80;;;;;;;17.79;75.89;101564.84;5034209;28;20033;-61
2023/07/18 06:19:40;;;;;;;5.95;3.60;;;;;;;18.05;75.56;101557.22;5036650;28;20103;-61
2023/07/18 06:22:05;;;;;;;8.98;4.60;;;;;;;18.14;72.72;101537.81;5043018;28;20721;-61
2023/07/18 06:24:31;;;;;;;7.85;2.90;;;;;;;18.20;72.22;101537.63;5037279;28;20043;-61
2023/07/18 06:26:57;;;;;;;6.25;2.95;;;;;;;18.30;72.56;101550.44;5037946;28;20040;-61
2023/07/18 06:29:22;;;;;;;8.30;3.53;;;;;;;18.39;72.36;101544.09;5032352;28;20111;-61
2023/07/18 06:31:48;;;;;;;8.07;3.78;;;;;;;18.46;72.39;101541.25;5035483;28;20032;-63
2023/07/18 06:34:17;;;;;;;8.32;3.50;;;;;;;18.60;72.39;101545.25;5030382;28;20033;-63
2023/07/18 06:36:43;;;;;;;6.88;3.63;;;;;;;18.66;71.00;101537.22;5031431;28;20097;-63
2023/07/18 06:39:08;;;;;;;8.77;3.67;;;;;;;18.73;70.70;101539.59;5029559;28;20055;-61
2023/07/18 06:41:33;;;;;;;11.80;3.72;;;;;;;18.76;69.63;101522.94;5034137;28;20390;-61
2023/07/18 06:43:59;;;;;;;7.82;3.42;;;;;;;19.00;69.96;101527.44;5037861;28;20037;-62
2023/07/18 06:46:24;;;;;;;9.50;3.90;;;;;;;19.11;69.26;101517.50;5038092;28;20151;-62
2023/07/18 06:48:50;;;;;;;7.97;3.53;;;;;;;19.21;68.92;101512.81;5043493;28;20028;-63
2023/07/18 06:51:15;;;;;;;6.55;3.40;;;;;;;19.34;68.37;101517.63;5042729;28;20122;-64
2023/07/18 06:53:41;;;;;;;6.97;3.47;;;;;;;19.51;67.59;101496.09;5047941;28;20099;-63
2023/07/18 06:56:06;;;;;;;6.97;3.72;;;;;;;19.53;67.65;101505.63;5040304;28;20678;-63
2023/07/18 06:58:31;;;;;;;6.30;2.92;;;;;;;19.62;66.48;101488.75;5037390;28;20064;-62
2023/07/18 07:00:56;;;;;;;9.45;2.78;;;;;;;19.81;66.49;101492.47;5038716;28;20051;-62
2023/07/18 07:03:22;;;;;;;9.13;3.35;;;;;;;19.93;66.50;101502.53;5038524;28;20056;-62
2023/07/18 07:05:47;;;;;;;5.57;3.33;;;;;;;20.10;66.62;101497.53;5038743;28;20060;-63
2023/07/18 07:08:13;;;;;;;6.57;3.13;;;;;;;20.35;64.56;101471.25;5048028;28;20061;-62
2023/07/18 07:10:42;;;;;;;4.75;2.78;;;;;;;20.52;64.13;101460.09;5040696;28;20904;-62
2023/07/18 07:13:08;;;;;;;6.88;3.65;;;;;;;20.58;62.68;101444.97;5038018;28;20041;-63
2023/07/18 07:15:34;;;;;;;6.93;3.17;;;;;;;20.66;62.30;101436.78;5035793;28;20037;-63
2023/07/18 07:18:01;;;;;;;4.43;2.88;;;;;;;20.84;63.39;101464.16;5036391;28;20047;-62
2023/07/18 07:20:30;;;;;;;7.35;3.03;;;;;;;20.77;61.15;101436.38;5035506;28;20075;-63
2023/07/18 07:22:55;;;;;;;10.40;2.97;;;;;;;20.41;61.20;101442.13;5047113;28;20119;-63
2023/07/18 07:25:21;;;;;;;4.88;3.05;;;;;;;20.40;61.58;101465.81;5045677;28;20036;-63
2023/07/18 07:27:47;;;;;;;7.18;2.97;;;;;;;20.55;61.85;101462.59;5035945;28;20421;-63
2023/07/18 07:30:16;;;;;;;5.30;3.10;;;;;;;20.61;62.31;101472.88;5038976;28;20811;-63
2023/07/18 07:32:47;;;;;;;6.72;3.72;;;;;;;20.46;61.06;101439.31;5033463;28;20131;-62
2023/07/18 07:35:14;;;;;;;6.32;3.25;;;;;;;20.63;61.99;101460.56;5036838;28;20036;-64
2023/07/18 07:37:40;;;;;;;6.65;3.42;;;;;;;20.47;62.31;101460.28;5039895;28;20037;-63
2023/07/18 07:40:09;;;;;;;5.65;2.80;;;;;;;20.54;61.68;101445.97;5036713;28;20056;-63
2023/07/18 07:42:35;;;;;;;6.55;2.83;;;;;;;20.55;62.31;101460.84;5040249;28;20037;-63
2023/07/18 07:45:00;;;;;;;7.13;3.47;;;;;;;20.57;61.12;101439.78;5033167;28;20048;-62
2023/07/18 07:47:25;;;;;;;5.68;2.67;;;;;;;20.61;61.39;101438.72;5036114;28;20082;-63
2023/07/18 07:49:51;;;;;;;4.97;2.55;;;;;;;20.68;61.29;101433.19;5040119;28;20378;-63
2023/07/18 07:52:16;;;;;;;7.22;2.70;;;;;;;20.66;61.39;101436.78;5046662;28;20041;-63
2023/07/18 07:54:44;;;;;;;6.72;2.92;;;;;;;20.67;61.88;101444.59;5045722;28;20052;-62
2023/07/18 07:57:10;;;;;;;7.60;3.30;;;;;;;20.72;61.44;101439.19;5036202;28;20466;-62
2023/07/18 07:59:36;;;;;;;8.55;3.50;;;;;;;20.87;61.43;101437.75;5039893;28;20037;-63
2023/07/18 08:02:01;;;;;;;7.00;2.67;;;;;;;20.85;59.54;101405.41;5039759;28;20423;-63
2023/07/18 08:04:27;;;;;;;5.25;2.92;;;;;;;21.01;59.32;101402.09;5028868;28;20128;-60
2023/07/18 08:06:55;;;;;;;4.88;2.90;;;;;;;21.33;58.78;101407.78;5033773;28;20036;-60
2023/07/18 08:09:21;;;;;;;7.65;3.08;;;;;;;21.71;58.14;101392.06;5035141;28;20042;-62
2023/07/18 08:11:47;;;;;;;7.15;2.80;;;;;;;21.85;56.94;101369.56;5041468;28;20049;-62
2023/07/18 08:14:12;;;;;;;5.15;2.97;;;;;;;22.20;56.84;101374.91;5041217;28;20029;-63
2023/07/18 08:16:37;;;;;;;5.57;2.63;;;;;;;22.16;55.84;101365.44;5039288;28;20041;-62
2023/07/18 08:19:03;;;;;;;6.55;2.60;;;;;;;22.20;56.17;101380.19;5042754;28;20395;-63
2023/07/18 08:21:28;;;;;;;4.10;2.40;;;;;;;22.13;56.64;101385.78;5037587;28;20082;-62
2023/07/18 08:23:54;;;;;;;6.25;2.33;;;;;;;22.13;56.59;101384.00;5041329;28;20495;-62
2023/07/18 08:26:20;;;;;;;11.02;2.72;;;;;;;22.06;55.94;101376.44;5042903;28;20482;-62
2023/07/18 08:28:45;;;;;;;4.30;2.75;;;;;;;21.95;54.98;101365.56;5038670;28;20040;-63
2023/07/18 08:31:10;;;;;;;4.57;2.65;;;;;;;22.09;55.75;101374.53;5030986;28;20041;-61
2023/07/18 08:33:36;;;;;;;6.65;2.88;;;;;;;22.19;56.05;101383.72;5031918;28;20082;-61
2023/07/18 08:36:01;;;;;;;4.70;2.60;;;;;;;22.31;55.63;101369.13;5047601;28;20048;-62
2023/07/18 08:38:27;;;;;;;8.98;3.10;;;;;;;22.36;54.37;101346.91;5040951;28;20435;-62
2023/07/18 08:40:52;;;;;;;5.55;2.60;;;;;;;22.45;53.50;101329.84;5046772;28;20025;-62
2023/07/18 08:43:18;;;;;;;6.10;2.67;;;;;;;22.72;53.64;101343.44;5041301;28;20512;-62
2023/07/18 08:45:44;;;;;;;8.30;3.30;;;;;;;22.98;53.15;101324.53;5045456;28;20421;-63
2023/07/18 08:48:09;;;;;;;6.43;3.17;;;;;;;23.09;53.25;101330.13;5042258;28;20040;-62
2023/07/18 08:50:35;;;;;;;7.22;2.60;;;;;;;23.10;52.07;101308.09;5044004;28;20155;-62
2023/07/18 08:53:05;;;;;;;6.45;3.20;;;;;;;23.34;52.14;101316.53;5043158;28;20560;-63
2023/07/18 08:55:30;;;;;;;6.15;3.00;;;;;;;23.51;51.02;101294.56;5042873;28;20128;-62
2023/07/18 08:57:57;;;;;;;7.45;2.33;;;;;;;23.66;48.23;101252.34;5041279;28;20045;-63
2023/07/18 09:00:22;;;;;;;5.93;2.30;;;;;;;23.63;47.90;101251.69;5034643;28;20747;-61
2023/07/18 09:02:48;;;;;;;5.53;2.42;;;;;;;23.79;48.16;101266.56;5035560;28;20048;-61
2023/07/18 09:05:35;;;;;;;6.00;2.38;;;;;;;24.11;46.25;101234.91;5037035;28;20465;-61
2023/07/18 09:08:02;;;;;;;4.60;1.95;;;;;;;24.47;46.85;101241.56;5037130;28;20656;-61
2023/07/18 09:10:27;;;;;;;4.90;2.20;;;;;;;24.69;46.71;101237.69;5035472;28;20041;-61
2023/07/18 09:12:53;;;;;;;3.13;2.03;;;;;;;24.54;46.12;101236.78;5034494;28;20116;-61
2023/07/18 09:15:19;;;;;;;5.40;2.55;;;;;;;24.32;44.69;101208.09;5033276;28;20120;-61
2023/07/18 09:17:53;;;;;;;4.93;2.13;;;;;;;24.32;45.41;101218.66;5038538;28;20136;-61
2023/07/18 09:20:19;;;;;;;6.07;2.30;;;;;;;24.22;45.89;101220.16;5035860;28;20033;-63
2023/07/18 09:22:44;;;;;;;3.83;1.85;;;;;;;24.33;44.77;101198.38;5039356;28;20029;-63
2023/07/18 09:25:14;;;;;;;3.95;2.25;;;;;;;24.70;44.02;101191.81;5037999;28;20070;-64
2023/07/18 09:27:39;;;;;;;6.18;2.35;;;;;;;24.94;44.36;101185.88;5033689;28;20037;-63
2023/07/18 09:30:05;;;;;;;5.78;2.47;;;;;;;25.09;43.16;101177.00;5038376;28;20081;-63
2023/07/18 09:32:31;;;;;;;3.78;2.28;;;;;;;24.74;43.67;101174.81;5030374;28;20095;-61
2023/07/18 09:35:00;;;;;;;3.97;2.45;;;;;;;24.88;44.33;101190.69;5038562;28;20155;-60
2023/07/18 09:37:27;;;;;;;6.85;2.17;;;;;;;25.08;44.14;101180.56;5035965;28;20872;-60
2023/07/18 09:39:52;;;;;;;6.55;2.42;;;;;;;25.23;43.36;101156.78;5036144;28;20053;-60
2023/07/18 09:42:19;;;;;;;4.82;2.35;;;;;;;25.32;43.76;101188.81;5034028;28;20128;-61
2023/07/18 09:44:49;;;;;;;6.85;2.92;;;;;;;24.92;43.53;101195.72;5033931;28;20787;-60
2023/07/18 09:47:16;;;;;;;5.82;2.35;;;;;;;24.72;44.71;101197.84;5032487;28;20029;-60
2023/07/18 09:49:45;;;;;;;5.15;2.40;;;;;;;24.45;43.90;101180.03;5031015;28;20040;-61
2023/07/18 09:52:11;;;;;;;6.55;2.50;;;;;;;24.54;43.67;101183.91;5042927;28;20052;-61
2023/07/18 09:54:38;;;;;;;7.05;2.20;;;;;;;24.40;44.06;101205.03;5041285;28;20041;-60
2023/07/18 09:57:06;;;;;;;4.95;2.33;;;;;;;24.48;44.96;101226.56;5036411;28;20098;-60
2023/07/18 09:59:37;;;;;;;6.20;2.33;;;;;;;24.39;44.40;101204.19;5035119;28;20094;-60
2023/07/18 10:02:06;;;;;;;3.65;2.00;;;;;;;24.51;44.86;101221.09;5036002;28;20414;-60
2023/07/18 10:04:34;;;;;;;3.38;2.05;;;;;;;24.71;45.06;101227.88;5035346;28;20043;-60
2023/07/18 10:07:02;;;;;;;5.85;1.90;;;;;;;24.96;43.76;101205.16;5039939;28;20044;-60
2023/07/18 10:09:28;;;;;;;4.93;2.63;;;;;;;24.93;43.24;101191.28;5042476;28;20549;-60
2023/07/18 10:12:03;;;;;;;6.45;2.47;;;;;;;24.95;43.40;101192.88;5045473;28;20036;-60
2023/07/18 10:14:29;;;;;;;6.18;2.63;;;;;;;25.25;43.34;101198.06;5043035;28;20035;-62
2023/07/18 10:16:55;;;;;;;5.28;2.67;;;;;;;25.41;42.90;101179.47;5036587;28;20104;-63
2023/07/18 10:19:25;;;;;;;7.95;2.50;;;;;;;25.60;43.00;101180.84;5028942;28;20587;-63
2023/07/18 10:21:52;;;;;;;5.97;2.58;;;;;;;25.47;43.15;101182.56;5035055;28;20510;-60
2023/07/18 10:24:20;;;;;;;7.43;2.72;;;;;;;25.32;42.66;101170.28;5035048;28;20044;-61
2023/07/18 10:27:07;;;;;;;5.72;2.13;;;;;;;25.28;42.73;101154.69;5040283;28;20083;-61
2023/07/18 10:29:38;;;;;;;4.88;3.00;;;;;;;25.17;43.76;101168.59;5029591;28;20036;-61
2023/07/18 10:32:04;;;;;;;9.48;3.30;;;;;;;24.93;42.64;101138.38;5029395;28;20517;-61
2023/07/18 10:34:36;;;;;;;3.28;2.20;;;;;;;24.74;41.88;101106.91;5039203;28;20132;-61
2023/07/18 10:37:07;;;;;;;6.22;2.58;;;;;;;24.52;41.74;101128.50;5036173;28;20670;-61
2023/07/18 10:39:46;;;;;;;2.80;2.22;;;;;;;24.33;42.50;101146.41;5036158;28;20064;-60
2023/07/18 10:42:21;;;;;;;5.13;2.00;;;;;;;24.41;43.12;101162.63;5035748;28;20041;-61
2023/07/18 10:44:48;;;;;;;5.07;2.55;;;;;;;24.41;44.72;101189.06;5031725;28;20597;-61
2023/07/18 10:47:18;;;;;;;4.72;2.03;;;;;;;24.49;44.94;101178.06;5032137;28;20119;-59
2023/07/18 10:49:45;;;;;;;5.45;2.60;;;;;;;24.63;44.38;101167.50;5041027;28;20418;-60
2023/07/18 10:52:11;;;;;;;5.93;2.40;;;;;;;24.77;44.89;101159.63;5044618;28;20102;-61
2023/07/18 10:54:37;;;;;;;5.75;2.50;;;;;;;24.88;43.61;101140.44;5041679;28;20041;-61
2023/07/18 10:57:03;;;;;;;4.32;2.38;;;;;;;24.95;42.56;101118.81;5037012;28;20063;-62
2023/07/18 10:59:29;;;;;;;6.15;1.98;;;;;;;25.14;42.47;101113.22;5035924;28;20082;-62
2023/07/18 11:01:58;;;;;;;3.50;2.50;;;;;;;25.27;42.66;101118.56;5032789;28;20592;-62
2023/07/18 11:04:24;;;;;;;4.03;2.30;;;;;;;25.68;42.14;101127.38;5038037;28;20036;-62
2023/07/18 11:06:53;;;;;;;5.10;2.20;;;;;;;25.94;41.80;101102.69;5033907;28;20037;-60
2023/07/18 11:09:18;;;;;;;4.60;2.25;;;;;;;26.06;40.14;101085.13;5033581;28;20083;-60
2023/07/18 11:11:44;;;;;;;5.13;2.67;;;;;;;26.02;40.22;101070.38;5036791;28;20669;-60
2023/07/18 11:14:09;;;;;;;5.05;2.50;;;;;;;26.12;40.13;101074.16;5033692;28;20056;-60
2023/07/18 11:16:36;;;;;;;4.90;2.88;;;;;;;26.37;40.03;101074.16;5038058;28;20456;-60
2023/07/18 11:19:05;;;;;;;4.25;1.88;;;;;;;26.63;40.54;101067.88;5032508;28;20052;-60
2023/07/18 11:21:30;;;;;;;5.05;2.63;;;;;;;26.91;39.04;101032.34;5037835;28;20449;-60